Cedarville, Indiana
Current Conditions -  °F | °C
As of 4:35 PM on Thursday 27 Nov 2014 (Local Time) from KGWB Reporting Station
Overcast Overcast  
Wind Chill: 22°   Ceiling: 1700
Heat Index: 32°   Visibility: 10mi
Dew Point: 27°   Wind: 15mph
Humidity: 80%   Direction: 270°W
Pressure: 30.25"   Gusts: 23mph
Location:  41.2326°N, 85.0459°W
Report Text: KGWB 272135Z AUTO 27013G20KT 10SM SCT007 BKN017 OVC035 00/M03 A3025 RMK AO2
Loading
Personal Weather Stations






























Interactive Weather Map New forecast layout! Learn more

10-Day Weather Forecast

Advertisements
Track Severe Weather on mobile